Time;durP1;ratioP1;P1;durP2;ratioP2;P2;SDS_P1;SDS_P2;PMS_P1;PMS_P2;Temp;Humidity;BMP_temperature;BMP_pressure;BME280_temperature;BME280_humidity;BME280_pressure;Samples;Min_cycle;Max_cycle;Signal;HPM_P1;HPM_P2
2024/01/13 00:02:11;;;;;;;46.30;18.80;;;;;;;-4.29;46.41;99792.50;108045;1253;60680;-67
2024/01/13 00:04:38;;;;;;;43.90;13.90;;;;;;;-4.33;46.50;99783.00;108032;1254;60152;-67
2024/01/13 00:07:05;;;;;;;40.20;17.00;;;;;;;-4.19;47.12;99775.86;108000;1253;73433;-67
2024/01/13 00:09:31;;;;;;;42.80;14.70;;;;;;;-3.77;47.18;99772.42;108082;1254;70873;-67
2024/01/13 00:11:58;;;;;;;46.40;17.20;;;;;;;-3.70;46.98;99767.71;107965;1253;73024;-67
2024/01/13 00:14:24;;;;;;;42.50;17.60;;;;;;;-3.82;46.14;99763.77;108060;1254;61876;-66
2024/01/13 00:16:51;;;;;;;42.80;16.80;;;;;;;-3.93;46.27;99762.77;108058;1254;60664;-66
2024/01/13 00:19:18;;;;;;;42.30;16.20;;;;;;;-3.76;46.56;99752.37;108019;1254;73649;-67
2024/01/13 00:21:45;;;;;;;36.50;14.40;;;;;;;-3.68;46.03;99747.83;108065;1254;69089;-67
2024/01/13 00:24:12;;;;;;;34.70;15.70;;;;;;;-3.69;45.38;99745.95;107996;1254;72825;-66
2024/01/13 00:26:39;;;;;;;43.40;16.20;;;;;;;-3.87;44.93;99741.57;107938;1254;62502;-66
2024/01/13 00:29:06;;;;;;;40.80;16.70;;;;;;;-3.95;44.88;99736.30;108116;1254;60419;-67
2024/01/13 00:31:33;;;;;;;37.90;14.90;;;;;;;-3.90;45.11;99731.58;108050;1254;73365;-67
2024/01/13 00:33:59;;;;;;;33.50;13.00;;;;;;;-3.93;45.35;99726.71;108024;1253;70364;-66
2024/01/13 00:36:27;;;;;;;40.00;15.20;;;;;;;-4.04;45.36;99719.88;108058;1254;73037;-66
2024/01/13 00:38:54;;;;;;;39.80;16.00;;;;;;;-4.00;45.62;99715.81;107976;1254;61953;-66
2024/01/13 00:41:20;;;;;;;42.50;16.10;;;;;;;-4.00;46.11;99710.34;108052;1253;60359;-66
2024/01/13 00:43:47;;;;;;;39.10;14.90;;;;;;;-3.84;46.62;99708.52;108021;1257;72923;-65
2024/01/13 00:46:14;;;;;;;36.50;14.20;;;;;;;-3.86;47.02;99703.67;108057;1254;70344;-64
2024/01/13 00:48:40;;;;;;;24.40;11.10;;;;;;;-4.09;48.07;99700.42;108112;1254;72895;-66
2024/01/13 00:51:10;;;;;;;31.70;11.90;;;;;;;-3.92;48.12;99692.80;108068;1254;62396;-65
2024/01/13 00:53:38;;;;;;;29.90;11.50;;;;;;;-3.79;48.21;99686.11;108047;1254;59541;-66
2024/01/13 00:56:06;;;;;;;33.60;12.30;;;;;;;-4.00;48.24;99683.41;108017;1253;72976;-66
2024/01/13 00:58:37;;;;;;;24.00;10.30;;;;;;;-3.87;47.66;99673.99;108034;1253;70771;-66
2024/01/13 01:01:12;;;;;;;26.40;11.40;;;;;;;-3.95;48.11;99669.60;108024;1254;72984;-65
2024/01/13 01:03:40;;;;;;;38.80;14.00;;;;;;;-3.84;48.22;99657.73;107937;1254;61861;-67
2024/01/13 01:06:07;;;;;;;26.80;10.30;;;;;;;-3.97;47.75;99654.98;108080;1254;59518;-67
2024/01/13 01:08:34;;;;;;;30.30;9.20;;;;;;;-4.11;48.01;99643.30;108057;1253;72094;-67
2024/01/13 01:11:10;;;;;;;13.20;7.50;;;;;;;-4.23;48.36;99642.77;108046;1254;71278;-66
2024/01/13 01:13:38;;;;;;;30.50;11.60;;;;;;;-4.22;48.42;99637.98;108143;1254;72731;-66
2024/01/13 01:16:05;;;;;;;26.90;10.60;;;;;;;-3.91;47.77;99627.29;108073;1254;60899;-64
2024/01/13 01:18:32;;;;;;;24.30;9.80;;;;;;;-4.02;48.38;99620.62;108088;1254;60357;-65
2024/01/13 01:21:11;;;;;;;26.10;11.10;;;;;;;-4.26;48.75;99619.93;108126;1254;74054;-66
2024/01/13 01:23:39;;;;;;;29.70;10.50;;;;;;;-4.35;49.24;99613.11;108238;1254;69936;-67
2024/01/13 01:26:06;;;;;;;26.70;10.60;;;;;;;-4.52;50.05;99605.67;108106;1254;72569;-66
2024/01/13 01:28:33;;;;;;;23.20;10.10;;;;;;;-4.39;50.14;99600.21;107946;1254;62202;-67
2024/01/13 01:31:06;;;;;;;14.80;8.40;;;;;;;-4.32;50.16;99595.86;108051;1254;60530;-66
2024/01/13 01:33:34;;;;;;;20.00;8.60;;;;;;;-4.31;50.43;99588.16;108006;1254;73036;-66
2024/01/13 01:36:02;;;;;;;28.60;13.20;;;;;;;-4.36;50.79;99585.52;108021;1254;69794;-66
2024/01/13 01:38:29;;;;;;;31.20;12.10;;;;;;;-4.32;50.97;99577.17;107968;1254;71380;-67
2024/01/13 01:41:09;;;;;;;29.50;11.70;;;;;;;-4.37;50.89;99574.89;107928;1254;62087;-67
2024/01/13 01:43:36;;;;;;;27.00;10.70;;;;;;;-4.41;51.36;99561.45;108006;1254;60382;-67
2024/01/13 01:46:03;;;;;;;29.70;12.30;;;;;;;-4.10;51.32;99559.98;108115;1253;72837;-67
2024/01/13 01:48:33;;;;;;;32.80;13.00;;;;;;;-3.99;50.92;99547.45;108062;1254;70264;-68
2024/01/13 01:51:06;;;;;;;21.40;9.00;;;;;;;-4.04;50.67;99537.44;108041;1254;73041;-65
2024/01/13 01:53:34;;;;;;;34.30;12.40;;;;;;;-4.14;50.93;99534.91;108012;1253;61848;-67
2024/01/13 01:56:04;;;;;;;27.80;11.60;;;;;;;-4.07;51.03;99530.88;108059;1254;60308;-66
2024/01/13 01:58:31;;;;;;;21.90;10.00;;;;;;;-3.97;51.01;99523.11;108052;1257;74454;-67
2024/01/13 02:01:02;;;;;;;27.70;11.70;;;;;;;-3.77;50.54;99517.84;108097;1254;69083;-67
2024/01/13 02:03:29;;;;;;;30.10;12.10;;;;;;;-3.76;50.36;99504.48;107984;1254;72686;-65
2024/01/13 02:05:58;;;;;;;22.20;9.20;;;;;;;-3.69;50.40;99499.58;108003;1254;61760;-66
2024/01/13 02:08:25;;;;;;;19.10;8.70;;;;;;;-4.05;51.45;99486.32;107988;1254;60305;-66
2024/01/13 02:11:06;;;;;;;20.80;8.30;;;;;;;-4.09;51.52;99485.94;107944;1254;73964;-65
2024/01/13 02:13:32;;;;;;;29.80;10.00;;;;;;;-4.00;51.26;99477.29;108080;1254;69851;-66
2024/01/13 02:15:59;;;;;;;24.90;11.00;;;;;;;-4.09;51.41;99465.02;107867;1254;71316;-66
2024/01/13 02:18:26;;;;;;;18.80;7.60;;;;;;;-3.99;51.69;99463.92;107992;1254;62089;-67
2024/01/13 02:21:05;;;;;;;28.20;12.70;;;;;;;-3.83;51.41;99460.48;108114;1253;60424;-66
2024/01/13 02:23:33;;;;;;;27.30;11.00;;;;;;;-3.83;51.24;99452.61;108020;1254;73806;-66
2024/01/13 02:26:01;;;;;;;30.60;13.10;;;;;;;-4.11;51.81;99449.21;108098;1253;69362;-66
2024/01/13 02:28:28;;;;;;;28.90;12.00;;;;;;;-3.69;50.99;99450.01;108105;1254;71178;-64
2024/01/13 02:31:10;;;;;;;34.20;12.70;;;;;;;-3.28;50.35;99440.56;108075;1254;61768;-65
2024/01/13 02:33:38;;;;;;;31.30;9.80;;;;;;;-3.37;50.43;99434.50;108014;1254;59001;-67
2024/01/13 02:36:05;;;;;;;32.50;12.40;;;;;;;-3.35;50.20;99437.08;108112;1254;73674;-67
2024/01/13 02:38:32;;;;;;;26.60;12.10;;;;;;;-3.52;50.45;99434.70;108080;1254;70811;-65
2024/01/13 02:41:05;;;;;;;28.30;12.40;;;;;;;-3.46;50.87;99430.30;108060;1254;73182;-66
2024/01/13 02:43:32;;;;;;;28.30;11.40;;;;;;;-3.54;51.01;99427.65;108126;1254;61830;-66
2024/01/13 02:45:59;;;;;;;22.50;10.50;;;;;;;-3.19;50.22;99412.13;108057;1254;60501;-66
2024/01/13 02:48:27;;;;;;;28.60;12.20;;;;;;;-3.21;50.21;99413.33;108067;1254;74685;-66
2024/01/13 02:51:06;;;;;;;23.00;11.40;;;;;;;-3.01;49.84;99418.77;108042;1254;70669;-66
2024/01/13 02:53:32;;;;;;;22.20;8.60;;;;;;;-3.01;49.70;99410.20;108154;1253;71601;-66
2024/01/13 02:55:59;;;;;;;23.70;9.60;;;;;;;-3.23;50.20;99402.49;108112;1254;61969;-67
2024/01/13 02:58:26;;;;;;;26.00;10.60;;;;;;;-3.10;50.06;99394.34;108069;1254;61207;-65
2024/01/13 03:01:07;;;;;;;25.30;10.00;;;;;;;-3.11;50.00;99396.73;108018;1255;74589;-67
2024/01/13 03:03:34;;;;;;;27.70;11.70;;;;;;;-3.05;49.78;99395.06;108026;1254;69274;-66
2024/01/13 03:06:04;;;;;;;22.50;10.30;;;;;;;-2.95;49.63;99393.05;108031;1254;73048;-66
2024/01/13 03:08:31;;;;;;;21.90;10.00;;;;;;;-2.83;49.41;99395.17;108044;1254;60623;-66
2024/01/13 03:11:11;;;;;;;13.90;6.70;;;;;;;-2.82;49.12;99391.06;108024;1254;60518;-67
2024/01/13 03:13:38;;;;;;;17.00;7.10;;;;;;;-3.01;49.25;99391.62;107913;1254;73547;-66
2024/01/13 03:16:05;;;;;;;26.50;11.50;;;;;;;-3.13;49.69;99396.55;108058;1254;70952;-65
2024/01/13 03:18:32;;;;;;;26.80;10.80;;;;;;;-3.05;49.63;99390.07;108032;1254;71128;-67
2024/01/13 03:21:11;;;;;;;26.80;10.70;;;;;;;-2.89;49.55;99383.63;107903;1254;61984;-66
2024/01/13 03:23:41;;;;;;;22.30;9.90;;;;;;;-2.75;49.61;99379.23;108093;1254;60444;-66
2024/01/13 03:26:08;;;;;;;26.40;11.70;;;;;;;-2.81;50.26;99377.31;108015;1254;74691;-67
2024/01/13 03:28:34;;;;;;;25.60;12.20;;;;;;;-2.72;49.89;99377.02;107920;1254;69224;-66
2024/01/13 03:31:12;;;;;;;24.60;11.50;;;;;;;-2.61;49.84;99368.46;107940;1254;73069;-66
2024/01/13 03:33:44;;;;;;;29.90;11.40;;;;;;;-2.48;49.70;99365.09;108057;1254;60837;-66
2024/01/13 03:36:11;;;;;;;19.30;9.50;;;;;;;-2.45;49.85;99362.85;108043;1254;60372;-66
2024/01/13 03:38:39;;;;;;;27.10;10.90;;;;;;;-2.22;49.37;99359.83;107906;1260;73849;-69
2024/01/13 03:41:15;;;;;;;27.60;12.60;;;;;;;-2.21;49.41;99358.80;108083;1254;69971;-65
2024/01/13 03:43:43;;;;;;;28.60;11.10;;;;;;;-2.23;48.85;99355.70;108036;1254;73234;-67
2024/01/13 03:46:10;;;;;;;23.80;8.90;;;;;;;-2.50;49.71;99357.17;108094;1254;60540;-66
2024/01/13 03:48:37;;;;;;;30.90;13.40;;;;;;;-2.39;49.21;99359.77;108101;1254;60228;-66
2024/01/13 03:51:04;;;;;;;28.60;12.30;;;;;;;-2.40;48.68;99355.30;108000;1254;73811;-68
2024/01/13 03:53:32;;;;;;;27.20;11.60;;;;;;;-2.49;48.49;99353.39;107996;1254;69078;-66
2024/01/13 03:56:03;;;;;;;25.10;9.90;;;;;;;-2.64;48.94;99350.93;108042;1254;72838;-66
2024/01/13 03:58:30;;;;;;;22.20;9.50;;;;;;;-2.60;48.99;99345.80;108019;1254;60430;-68
2024/01/13 04:00:57;;;;;;;27.70;11.00;;;;;;;-2.82;49.88;99347.24;108005;1254;60989;-65
2024/01/13 04:03:24;;;;;;;16.90;7.40;;;;;;;-2.60;49.47;99341.50;108091;1254;76015;-66
2024/01/13 04:05:51;;;;;;;28.10;12.90;;;;;;;-2.61;49.58;99337.88;108032;1255;70216;-65
2024/01/13 04:08:18;;;;;;;24.20;9.20;;;;;;;-2.58;49.21;99328.27;108041;1254;71375;-66
2024/01/13 04:10:45;;;;;;;29.30;12.80;;;;;;;-2.91;49.84;99326.08;107974;1254;61756;-66
2024/01/13 04:13:12;;;;;;;27.70;11.30;;;;;;;-2.59;49.32;99324.66;108079;1254;60415;-67
2024/01/13 04:15:39;;;;;;;27.90;9.70;;;;;;;-2.56;49.36;99322.09;108060;1254;73965;-66
2024/01/13 04:18:06;;;;;;;28.00;11.20;;;;;;;-2.82;50.03;99322.17;108039;1254;70919;-66
2024/01/13 04:20:33;;;;;;;27.60;12.90;;;;;;;-2.81;50.43;99324.40;108033;1254;73166;-65
2024/01/13 04:23:00;;;;;;;23.90;10.20;;;;;;;-2.68;50.28;99323.26;107844;1254;61872;-66
2024/01/13 04:25:27;;;;;;;27.00;10.50;;;;;;;-2.78;50.47;99321.34;108006;1254;60136;-66
2024/01/13 04:27:54;;;;;;;24.10;11.70;;;;;;;-2.68;49.93;99323.08;108033;1254;73702;-64
2024/01/13 04:30:21;;;;;;;29.40;12.90;;;;;;;-3.10;50.46;99323.08;108038;1254;70178;-64
2024/01/13 04:32:48;;;;;;;26.40;12.40;;;;;;;-3.15;50.66;99318.08;108017;1254;72392;-60
2024/01/13 04:35:15;;;;;;;33.40;14.10;;;;;;;-3.03;50.56;99320.71;108023;1254;61973;-63
2024/01/13 04:37:42;;;;;;;34.00;13.80;;;;;;;-2.97;50.51;99318.84;108049;1254;60443;-66
2024/01/13 04:40:09;;;;;;;31.70;13.30;;;;;;;-2.92;50.56;99318.52;108065;1254;73913;-66
2024/01/13 04:42:35;;;;;;;28.90;14.00;;;;;;;-2.91;50.73;99317.33;108072;1254;69888;-65
2024/01/13 04:45:03;;;;;;;19.50;9.10;;;;;;;-2.82;50.29;99309.63;108184;1254;72485;-65
2024/01/13 04:47:30;;;;;;;32.30;13.40;;;;;;;-2.86;50.54;99304.96;108119;1254;61959;-66
2024/01/13 04:49:57;;;;;;;25.80;10.50;;;;;;;-2.79;50.63;99301.74;108168;1254;60374;-66
2024/01/13 04:52:24;;;;;;;20.80;7.60;;;;;;;-2.82;51.18;99301.05;108123;1253;72660;-66
2024/01/13 04:54:51;;;;;;;20.00;8.60;;;;;;;-2.79;51.20;99304.15;108088;1253;70911;-67
2024/01/13 04:57:18;;;;;;;26.30;11.00;;;;;;;-2.56;50.90;99302.50;108142;1257;72956;-67
2024/01/13 04:59:45;;;;;;;33.00;11.80;;;;;;;-2.13;51.37;99303.79;108088;1253;61885;-65
2024/01/13 05:02:12;;;;;;;32.70;11.90;;;;;;;-1.67;51.13;99303.27;108116;1254;60527;-67
2024/01/13 05:04:39;;;;;;;22.60;8.60;;;;;;;-1.64;50.80;99301.70;108120;1257;74620;-66
2024/01/13 05:07:07;;;;;;;27.20;9.40;;;;;;;-1.66;49.19;99300.33;108145;1254;69211;-66
2024/01/13 05:09:34;;;;;;;23.90;10.70;;;;;;;-1.65;48.77;99301.02;108002;1254;72634;-66
2024/01/13 05:12:00;;;;;;;30.30;11.20;;;;;;;-1.96;48.81;99299.48;108114;1254;61758;-66
2024/01/13 05:14:27;;;;;;;30.40;11.50;;;;;;;-1.99;48.72;99297.24;108081;1254;60438;-66
2024/01/13 05:16:54;;;;;;;19.00;8.60;;;;;;;-2.08;49.00;99296.21;108088;1254;73309;-66
2024/01/13 05:19:21;;;;;;;32.10;8.00;;;;;;;-2.22;49.80;99297.23;108076;1254;70847;-66
2024/01/13 05:21:48;;;;;;;20.10;10.30;;;;;;;-2.48;49.76;99300.27;108108;1254;70759;-66
2024/01/13 05:24:14;;;;;;;24.60;10.40;;;;;;;-2.55;50.41;99298.54;108051;1254;61878;-66
2024/01/13 05:26:44;;;;;;;17.30;7.50;;;;;;;-2.68;50.30;99299.88;108029;1254;60318;-66
2024/01/13 05:29:11;;;;;;;28.20;11.20;;;;;;;-2.74;50.49;99294.20;108071;1253;72775;-66
2024/01/13 05:31:38;;;;;;;21.90;9.30;;;;;;;-2.53;50.33;99295.80;108083;1254;70824;-66
2024/01/13 05:34:04;;;;;;;21.90;9.00;;;;;;;-2.59;50.57;99297.85;108018;1253;73070;-66
2024/01/13 05:36:31;;;;;;;30.50;11.60;;;;;;;-2.44;50.26;99293.42;107897;1254;61873;-66
2024/01/13 05:38:58;;;;;;;28.40;11.90;;;;;;;-2.32;50.26;99295.50;108104;1254;60692;-67
2024/01/13 05:41:25;;;;;;;26.20;12.20;;;;;;;-2.27;50.19;99291.56;108024;1254;73341;-66
2024/01/13 05:43:52;;;;;;;28.00;11.50;;;;;;;-2.12;49.89;99288.64;108086;1254;70598;-67
2024/01/13 05:46:19;;;;;;;27.90;12.50;;;;;;;-2.28;50.25;99290.87;107944;1254;71242;-65
2024/01/13 05:48:45;;;;;;;21.80;10.50;;;;;;;-2.11;49.89;99287.61;108029;1253;62003;-65
2024/01/13 05:51:12;;;;;;;27.20;11.20;;;;;;;-2.04;50.01;99283.32;108103;1254;60443;-67
2024/01/13 05:53:39;;;;;;;24.60;11.60;;;;;;;-2.01;50.21;99286.92;108115;1254;74331;-67
2024/01/13 05:56:06;;;;;;;24.80;11.70;;;;;;;-1.78;49.86;99288.65;108086;1253;70485;-67
2024/01/13 05:58:36;;;;;;;23.60;11.60;;;;;;;-1.67;49.90;99292.08;108105;1254;73041;-66
2024/01/13 06:01:02;;;;;;;25.00;11.00;;;;;;;-1.50;49.88;99292.23;108030;1254;61767;-67
2024/01/13 06:03:29;;;;;;;30.50;12.30;;;;;;;-1.25;49.88;99294.77;108035;1253;60527;-67
2024/01/13 06:05:57;;;;;;;33.40;12.10;;;;;;;-1.13;50.00;99295.59;108064;1253;74249;-66
2024/01/13 06:08:24;;;;;;;27.60;11.20;;;;;;;-1.06;49.04;99297.29;108196;1254;70252;-66
2024/01/13 06:10:51;;;;;;;27.90;11.70;;;;;;;-1.10;49.06;99292.98;108138;1254;73086;-66
2024/01/13 06:13:18;;;;;;;36.50;14.80;;;;;;;-1.07;49.09;99298.66;108138;1254;62022;-67
2024/01/13 06:15:45;;;;;;;34.70;14.10;;;;;;;-0.91;48.38;99302.56;108173;1253;60338;-68
2024/01/13 06:18:12;;;;;;;34.40;14.00;;;;;;;-0.99;47.65;99307.94;108181;1254;74142;-67
2024/01/13 06:20:38;;;;;;;26.90;10.60;;;;;;;-1.20;47.87;99308.51;108172;1254;68155;-66
2024/01/13 06:23:06;;;;;;;34.90;15.10;;;;;;;-1.40;47.38;99305.98;108198;1254;72583;-66
2024/01/13 06:25:33;;;;;;;33.90;13.50;;;;;;;-1.45;47.35;99308.91;108189;1253;61813;-67
2024/01/13 06:28:05;;;;;;;36.20;13.10;;;;;;;-1.50;47.44;99306.85;108044;1252;61154;-66
2024/01/13 06:30:32;;;;;;;35.00;15.60;;;;;;;-1.50;47.27;99314.77;108249;1252;74399;-66
2024/01/13 06:32:59;;;;;;;35.50;14.90;;;;;;;-1.49;47.30;99316.15;108216;1256;70251;-67
2024/01/13 06:35:28;;;;;;;39.40;15.30;;;;;;;-1.53;47.63;99313.05;108193;1253;72755;-67
2024/01/13 06:37:56;;;;;;;43.00;14.20;;;;;;;-1.50;47.67;99318.39;108048;1254;61977;-66
2024/01/13 06:40:22;;;;;;;38.10;13.60;;;;;;;-1.54;47.64;99317.20;108260;1254;60360;-67
2024/01/13 06:42:49;;;;;;;30.10;13.10;;;;;;;-1.58;47.66;99323.39;108146;1254;74046;-67
2024/01/13 06:45:16;;;;;;;27.90;12.80;;;;;;;-1.53;47.66;99319.09;108170;1254;70514;-67
2024/01/13 06:47:42;;;;;;;31.80;12.30;;;;;;;-1.32;48.02;99314.40;108180;1256;73481;-66
2024/01/13 06:50:09;;;;;;;30.40;13.60;;;;;;;-1.23;48.32;99315.95;108138;1254;61718;-67
2024/01/13 06:52:37;;;;;;;34.80;13.60;;;;;;;-1.10;48.32;99319.52;108231;1253;60459;-67
2024/01/13 06:55:06;;;;;;;34.50;13.70;;;;;;;-1.09;47.79;99320.73;108162;1256;73795;-67
2024/01/13 06:57:33;;;;;;;29.30;13.30;;;;;;;-1.06;48.38;99325.19;108143;1254;69360;-67
2024/01/13 07:00:00;;;;;;;28.50;12.40;;;;;;;-0.76;47.76;99324.05;108154;1254;72883;-67
2024/01/13 07:02:27;;;;;;;32.40;13.70;;;;;;;-0.50;47.51;99330.66;108179;1256;60494;-67
2024/01/13 07:04:59;;;;;;;29.00;12.40;;;;;;;-0.32;46.76;99329.36;108203;1254;60345;-67
2024/01/13 07:07:26;;;;;;;34.80;15.00;;;;;;;0.02;46.50;99331.55;108168;1254;72779;-67
2024/01/13 07:09:53;;;;;;;27.20;11.70;;;;;;;0.27;45.29;99332.92;108166;1253;70244;-68
2024/01/13 07:12:20;;;;;;;27.40;11.50;;;;;;;0.28;44.03;99333.08;108152;1254;71476;-67
2024/01/13 07:14:47;;;;;;;24.20;11.80;;;;;;;0.11;43.39;99334.94;108148;1254;60795;-66
2024/01/13 07:17:20;;;;;;;32.50;14.40;;;;;;;-0.03;43.39;99334.87;108075;1254;60372;-67
2024/01/13 07:19:47;;;;;;;36.00;14.70;;;;;;;-0.25;43.42;99342.77;108174;1252;74330;-67
2024/01/13 07:22:14;;;;;;;35.30;15.30;;;;;;;-0.53;43.49;99340.33;108134;1253;69103;-67
2024/01/13 07:24:41;;;;;;;35.90;16.20;;;;;;;-0.79;44.31;99337.16;108210;1253;71401;-66
2024/01/13 07:27:09;;;;;;;28.70;14.30;;;;;;;-0.82;44.30;99340.10;108121;1256;62048;-68
2024/01/13 07:29:38;;;;;;;;;;;;;;;-0.84;44.51;99341.14;108201;1254;60399;-67
2024/01/13 07:32:18;;;;;;;31.90;12.60;;;;;;;-0.86;44.72;99347.34;108223;1254;74292;-67
2024/01/13 07:34:45;;;;;;;30.60;11.60;;;;;;;-0.95;44.94;99344.63;108189;1254;70427;-66
2024/01/13 07:37:12;;;;;;;22.90;11.00;;;;;;;-1.19;45.36;99349.00;108182;1254;73188;-66
2024/01/13 07:39:38;;;;;;;29.20;12.90;;;;;;;-1.19;45.69;99351.92;108160;1254;61826;-66
2024/01/13 07:42:05;;;;;;;23.40;11.90;;;;;;;-1.11;45.80;99350.17;108166;1254;60339;-66
2024/01/13 07:44:32;;;;;;;23.00;9.90;;;;;;;-1.00;46.01;99352.40;108166;1253;72718;-66
2024/01/13 07:47:01;;;;;;;29.00;14.20;;;;;;;-1.04;46.02;99353.79;108093;1254;70472;-67
2024/01/13 07:49:27;;;;;;;34.70;13.90;;;;;;;-0.81;45.79;99357.34;108078;1259;72962;-66
2024/01/13 07:51:55;;;;;;;34.00;15.30;;;;;;;-0.61;45.57;99362.60;108214;1254;60892;-66
2024/01/13 07:54:24;;;;;;;34.10;14.20;;;;;;;-0.37;45.45;99363.88;108167;1253;60763;-67
2024/01/13 07:56:51;;;;;;;36.50;16.50;;;;;;;-0.21;45.24;99368.63;108162;1254;73848;-67
2024/01/13 07:59:18;;;;;;;38.90;16.20;;;;;;;0.21;44.73;99367.49;108077;1254;70441;-67
2024/01/13 08:01:45;;;;;;;30.00;13.00;;;;;;;0.50;43.56;99364.67;108157;1253;73018;-68
2024/01/13 08:04:15;;;;;;;42.70;17.40;;;;;;;0.74;42.51;99363.77;108210;1253;61780;-67
2024/01/13 08:06:42;;;;;;;33.90;12.60;;;;;;;0.74;42.30;99364.80;108205;1254;60305;-68
2024/01/13 08:09:09;;;;;;;54.40;17.80;;;;;;;0.69;42.15;99371.94;108127;1254;74268;-66
2024/01/13 08:11:35;;;;;;;82.30;24.30;;;;;;;0.69;42.07;99377.64;108111;1254;70936;-67
2024/01/13 08:14:08;;;;;;;28.50;13.20;;;;;;;0.57;42.41;99386.72;107961;1254;73017;-67
2024/01/13 08:16:34;;;;;;;32.60;15.50;;;;;;;0.26;42.81;99392.66;108189;1254;60447;-66
2024/01/13 08:19:02;;;;;;;37.10;15.50;;;;;;;0.21;42.60;99398.23;108142;1254;60417;-67
2024/01/13 08:21:29;;;;;;;36.20;14.80;;;;;;;0.17;42.80;99399.11;108188;1254;74233;-66
2024/01/13 08:24:08;;;;;;;37.30;15.70;;;;;;;0.22;42.86;99409.26;108198;1254;70160;-67
2024/01/13 08:26:35;;;;;;;32.90;15.40;;;;;;;0.28;42.88;99411.47;108039;1253;72377;-67
2024/01/13 08:29:02;;;;;;;37.10;13.90;;;;;;;0.28;43.22;99419.40;108002;1254;61758;-66
2024/01/13 08:31:29;;;;;;;32.30;13.90;;;;;;;0.28;43.20;99418.89;108129;1254;60996;-66
2024/01/13 08:34:08;;;;;;;30.10;12.30;;;;;;;0.28;42.80;99415.96;108192;1254;73537;-66
2024/01/13 08:36:35;;;;;;;30.80;14.50;;;;;;;0.24;42.87;99409.77;108151;1254;70972;-67
2024/01/13 08:39:02;;;;;;;29.70;14.50;;;;;;;0.15;43.24;99411.20;108233;1256;72736;-67
2024/01/13 08:41:31;;;;;;;32.70;14.10;;;;;;;-0.04;43.68;99413.21;108176;1254;61814;-67
2024/01/13 08:44:02;;;;;;;28.00;13.40;;;;;;;-0.10;43.46;99417.04;108201;1254;60971;-67
2024/01/13 08:46:29;;;;;;;32.80;16.40;;;;;;;-0.17;44.17;99420.88;108082;1253;73747;-67
2024/01/13 08:48:56;;;;;;;38.50;15.30;;;;;;;-0.11;43.88;99418.95;108028;1253;70263;-67
2024/01/13 08:51:23;;;;;;;34.90;16.20;;;;;;;0.06;43.97;99419.89;108117;1253;73345;-66
2024/01/13 08:54:03;;;;;;;35.00;15.00;;;;;;;0.25;43.42;99423.05;108071;1253;62037;-67
2024/01/13 08:56:30;;;;;;;33.50;14.30;;;;;;;0.88;43.19;99423.09;108102;1253;60335;-67
2024/01/13 08:58:57;;;;;;;33.90;14.10;;;;;;;1.82;41.95;99414.25;108110;1254;73847;-67
2024/01/13 09:01:24;;;;;;;35.10;14.80;;;;;;;2.90;40.23;99404.83;107975;1253;70671;-67
2024/01/13 09:04:04;;;;;;;28.20;13.70;;;;;;;3.89;39.47;99406.04;108092;1253;72762;-67
2024/01/13 09:06:32;;;;;;;31.40;13.30;;;;;;;4.59;38.63;99418.89;108106;1253;60397;-67
2024/01/13 09:08:58;;;;;;;24.50;13.30;;;;;;;4.79;36.46;99433.87;108120;1258;60106;-67
2024/01/13 09:11:25;;;;;;;46.20;17.20;;;;;;;4.22;35.79;99436.23;108032;1253;74534;-67
2024/01/13 09:14:07;;;;;;;34.40;15.90;;;;;;;3.46;36.60;99431.23;108049;1253;70868;-66
2024/01/13 09:16:34;;;;;;;31.20;14.70;;;;;;;3.29;37.24;99434.68;108069;1254;72608;-66
2024/01/13 09:19:01;;;;;;;31.60;14.30;;;;;;;3.03;37.28;99442.59;107976;1253;61817;-66
2024/01/13 09:21:28;;;;;;;35.10;14.80;;;;;;;2.72;37.50;99441.54;107862;1253;168000;-68
2024/01/13 09:26:07;;;;;;;36.00;14.80;;;;;;;0.44;42.46;99456.65;104921;1289;600276;-67
2024/01/13 09:28:34;;;;;;;36.90;17.20;;;;;;;1.85;39.71;99455.08;108118;1251;61654;-67
2024/01/13 09:31:02;;;;;;;30.30;16.10;;;;;;;1.91;39.53;99456.20;108149;1251;60129;-67
2024/01/13 09:33:29;;;;;;;31.10;15.00;;;;;;;1.98;39.01;99453.89;108096;1254;71286;-68
2024/01/13 09:35:57;;;;;;;34.30;14.60;;;;;;;1.93;39.49;99453.77;108131;1253;68662;-67
2024/01/13 09:38:25;;;;;;;28.40;12.90;;;;;;;1.70;39.39;99460.81;108086;1253;71469;-67
2024/01/13 09:40:52;;;;;;;32.20;12.90;;;;;;;1.37;40.05;99462.38;108163;1251;216975;-67
2024/01/13 09:43:31;;;;;;;34.50;15.60;;;;;;;1.31;40.26;99466.42;108212;1251;59190;-67
2024/01/13 09:45:59;;;;;;;43.20;18.40;;;;;;;1.37;40.18;99466.52;108378;1250;71021;-67
2024/01/13 09:48:28;;;;;;;36.60;16.80;;;;;;;1.37;40.41;99467.05;108284;1251;69901;-67
2024/01/13 09:50:56;;;;;;;39.60;14.90;;;;;;;1.22;40.35;99481.55;108157;1257;72637;-68
2024/01/13 09:53:28;;;;;;;56.60;17.90;;;;;;;1.20;40.91;99483.29;108329;1250;61848;-67
2024/01/13 09:56:11;;;;;;;32.40;14.60;;;;;;;1.24;41.09;99486.20;108337;1251;61262;-67
2024/01/13 09:58:38;;;;;;;41.20;17.00;;;;;;;1.01;40.94;99479.31;108218;1251;71807;-67
2024/01/13 10:01:06;;;;;;;37.10;16.00;;;;;;;1.11;41.05;99476.98;108211;1251;70562;-67
2024/01/13 10:03:38;;;;;;;32.60;15.30;;;;;;;1.39;41.04;99478.97;108381;1252;74929;-67
2024/01/13 10:06:07;;;;;;;30.90;14.90;;;;;;;1.56;40.51;99480.51;108163;1251;63041;-68
2024/01/13 10:08:34;;;;;;;25.00;11.10;;;;;;;1.77;39.78;99484.09;108267;1251;59720;-66
2024/01/13 10:11:02;;;;;;;32.40;15.40;;;;;;;1.50;39.76;99488.54;108283;1250;72393;-66
2024/01/13 10:13:30;;;;;;;25.50;11.70;;;;;;;1.80;39.93;99485.96;108336;1255;69336;-68
2024/01/13 10:15:57;;;;;;;36.00;14.50;;;;;;;1.69;39.84;99486.26;108310;1255;72366;-67
2024/01/13 10:18:25;;;;;;;29.40;14.40;;;;;;;1.39;39.83;99493.83;108350;1251;61683;-67
2024/01/13 10:20:54;;;;;;;38.00;15.50;;;;;;;1.55;39.75;99497.48;108375;1255;59409;-68
2024/01/13 10:23:22;;;;;;;91.40;26.90;;;;;;;1.72;40.01;99497.98;108105;1250;72279;-67
2024/01/13 10:25:50;;;;;;;47.70;23.30;;;;;;;1.69;39.88;99496.46;108325;1251;69172;-67
2024/01/13 10:28:18;;;;;;;72.90;22.40;;;;;;;1.51;40.03;99505.30;108268;1251;71354;-67
2024/01/13 10:30:49;;;;;;;49.60;17.30;;;;;;;1.32;40.25;99511.55;108294;1251;61040;-68
2024/01/13 10:33:17;;;;;;;53.60;17.80;;;;;;;1.00;40.49;99515.45;108267;1251;60787;-67
2024/01/13 10:35:47;;;;;;;31.90;15.10;;;;;;;0.75;40.78;99523.77;108292;1251;72067;-67
2024/01/13 10:38:15;;;;;;;34.60;16.20;;;;;;;0.53;41.13;99527.52;108239;1256;70176;-68
2024/01/13 10:40:42;;;;;;;65.20;20.90;;;;;;;0.47;41.37;99521.01;108153;1251;72881;-66
2024/01/13 10:43:10;;;;;;;39.00;17.30;;;;;;;0.28;41.45;99521.61;108186;1251;61733;-66
2024/01/13 10:45:37;;;;;;;36.00;15.30;;;;;;;0.18;42.01;99514.77;108128;1251;60145;-68
2024/01/13 10:48:17;;;;;;;48.90;18.50;;;;;;;0.25;41.73;99512.66;108200;1251;73548;-67
2024/01/13 10:50:45;;;;;;;40.10;15.70;;;;;;;0.05;42.12;99512.41;108309;1251;70410;-67
2024/01/13 10:53:16;;;;;;;36.70;16.70;;;;;;;-0.03;41.91;99507.27;108142;1251;71613;-67
2024/01/13 10:55:44;;;;;;;49.90;20.00;;;;;;;-0.07;42.23;99514.52;108227;1251;62194;-68
2024/01/13 10:58:13;;;;;;;46.90;17.90;;;;;;;-0.21;42.07;99525.09;107988;1252;59957;-68
2024/01/13 11:00:41;;;;;;;45.20;20.40;;;;;;;-0.45;42.58;99521.89;108091;1251;72893;-66
2024/01/13 11:03:09;;;;;;;48.40;22.70;;;;;;;-0.61;42.85;99534.67;108237;1251;70806;-67
2024/01/13 11:05:37;;;;;;;50.80;17.90;;;;;;;-0.59;43.12;99540.54;108160;1253;71428;-67
2024/01/13 11:08:06;;;;;;;46.00;16.10;;;;;;;-0.53;43.03;99542.60;108187;1255;62753;-66
2024/01/13 11:10:37;;;;;;;52.20;17.40;;;;;;;-0.36;42.85;99542.73;108163;1252;60197;-67
2024/01/13 11:13:11;;;;;;;;;;;;;;;-0.43;42.93;99547.23;108204;1251;71970;-67
2024/01/13 11:15:43;;;;;;;42.80;18.00;;;;;;;-0.33;43.00;99548.40;108258;1251;70087;-67
2024/01/13 11:18:18;;;;;;;39.30;16.00;;;;;;;-0.26;43.07;99549.44;108248;1251;72670;-66
2024/01/13 11:21:07;;;;;;;48.00;19.10;;;;;;;-0.24;43.04;99543.73;108191;1251;60404;-66